Cal Poly Station - Weather Data Page - PST Time

Showing 72

Show Past 72 Hours | Show Past 24 Hours




                Date      RH     Dew  Seasonal     Current   Max Air   Min Air    Wind    Wind    Wind    Gust      Rain
                Time       %   Point      Rain    Air Temp     Since     Since   Speed     Dir    Gust     Dir     Total
                               Deg F    Inches       Deg F  Midnight  Midnight     MPH             MPH            Inches
------------------------------------------------------------------------------------------------------------------------
    10/17/2021 14:45      59    52.5      0.67        67.4      70.4      45.3       9     169      11     180      0.00
    10/17/2021 14:30      58    52.3      0.67        67.6      70.4      45.3       9     156      11     180      0.00
    10/17/2021 14:15      57    51.9      0.67        67.7      70.4      45.3       9     103      11     180      0.00
    10/17/2021 14:00      59    51.9      0.67        66.9      70.4      45.3       9     165      11     180      0.00
    10/17/2021 13:45      60    52.8      0.67        67.2      70.4      45.3       9     157      11     180      0.00
    10/17/2021 13:30      59    52.5      0.67        67.4      70.4      45.3       9     181      11     180      0.00
    10/17/2021 13:15      59    53.0      0.67        67.7      70.4      45.3       9     189      11     180      0.00
    10/17/2021 13:00      60    53.5      0.67        67.7      70.4      45.3       8     156      11     180      0.00
    10/17/2021 12:45      60    52.6      0.67        67.2      70.4      45.3      10     166      11     180      0.00
    10/17/2021 12:30      56    51.7      0.67        68.1      70.4      45.3      11     180      11     180      0.00
    10/17/2021 12:15      49    49.3      0.67        69.2      70.4      45.3      11     157      11     157      0.00
    10/17/2021 12:00      43    47.1      0.67        70.4      70.4      45.3       7     137       8     157      0.00
    10/17/2021 11:45      44    46.8      0.67        69.9      70.0      45.3       7     146       8     157      0.00
    10/17/2021 11:30      42    46.0      0.67        70.0      70.0      45.3       5     171       8     157      0.00
    10/17/2021 11:15      41    43.5      0.67        67.8      68.6      45.3       6     120       8     157      0.00
    10/17/2021 11:00      39    42.2      0.67        67.7      68.6      45.3       7     223       8     157      0.00
    10/17/2021 10:45      39    42.8      0.67        68.6      68.6      45.3       8     157       8     157      0.00
    10/17/2021 10:30      38    41.3      0.67        68.0      68.0      45.3       7     155       7     155      0.00
    10/17/2021 10:15      37    39.8      0.67        66.9      66.9      45.3       5     147       5     159      0.00
    10/17/2021 10:00      33    36.2      0.67        66.2      66.2      45.3       5     159       5     159      0.00
    10/17/2021 09:45      30    32.2      0.67        63.9      63.9      45.3       2     163       4     325      0.00
    10/17/2021 09:30      35    32.4      0.67        60.2      60.2      45.3       4     325       4     325      0.00
    10/17/2021 09:15      42    36.6      0.67        59.8      59.8      45.3       0     178       0     178      0.00
    10/17/2021 09:00      45    35.2      0.67        56.1      56.1      45.3       0     359       0     359      0.00
    10/17/2021 08:45      50    36.4      0.67        54.4      54.4      45.3       0     181       0     181      0.00
    10/17/2021 08:30      48    33.6      0.67        52.7      52.7      45.3       0     191       0     191      0.00
    10/17/2021 08:15      47    31.4      0.67        50.8      50.8      45.3       0      68       0      68      0.00
    10/17/2021 08:00      46    29.0      0.67        49.1      50.5      45.3       0     102       0     102      0.00
    10/17/2021 07:45      48    29.5      0.67        48.4      50.5      45.3       0      86       0      86      0.00
    10/17/2021 07:30      47    28.4      0.67        47.6      50.5      45.3       0     116       0     116      0.00
    10/17/2021 07:15      50    29.4      0.67        47.1      50.5      45.3       0      66       0      66      0.00
    10/17/2021 07:00      49    28.8      0.67        46.7      50.5      45.3       0     123       0     123      0.00
    10/17/2021 06:45      48    27.8      0.67        46.3      50.5      45.3       0     120       0     120      0.00
    10/17/2021 06:30      49    27.4      0.67        45.4      50.5      45.3       0      28       0      28      0.00
    10/17/2021 06:15      50    28.1      0.67        45.7      50.5      45.3       0     151       0     151      0.00
    10/17/2021 06:00      47    26.6      0.67        45.4      50.5      45.3       0      91       0      63      0.00
    10/17/2021 05:45      48    26.7      0.67        45.3      50.5      45.3       0      63       0      63      0.00
    10/17/2021 05:30      48    27.1      0.67        45.6      50.5      45.6       0      71       0     303      0.00
    10/17/2021 05:15      46    26.4      0.67        45.9      50.5      45.8       0     303       0     303      0.00
    10/17/2021 05:00      46    26.3      0.67        45.8      50.5      45.8       0      88       0      88      0.00
    10/17/2021 04:45      46    26.3      0.67        45.8      50.5      45.8       0      81       0      81      0.00
    10/17/2021 04:30      45    26.3      0.67        46.5      50.5      46.2       0     200       0     200      0.00
    10/17/2021 04:15      45    26.3      0.67        46.2      50.5      46.2       0      56       0      56      0.00
    10/17/2021 04:00      45    26.3      0.67        46.2      50.5      46.2       0     105       0     105      0.00
    10/17/2021 03:45      45    26.2      0.67        46.3      50.5      46.3       0      70       0      70      0.00
    10/17/2021 03:30      44    26.0      0.67        47.0      50.5      47.0       0     153       0     153      0.00
    10/17/2021 03:15      44    26.3      0.67        47.1      50.5      47.0       0      90       0      90      0.00
    10/17/2021 03:00      44    26.2      0.67        47.0      50.5      47.0       0      73       0      73      0.00
    10/17/2021 02:45      43    26.4      0.67        47.4      50.5      47.4       0      78       0      78      0.00
    10/17/2021 02:30      43    26.5      0.67        47.7      50.5      47.6       0      36       0      36      0.00
    10/17/2021 02:15      45    27.3      0.67        47.6      50.5      47.6       0      56       0      56      0.00
    10/17/2021 02:00      43    26.9      0.67        48.4      50.5      48.3       0     101       0     101      0.00
    10/17/2021 01:45      42    26.2      0.67        48.3      50.5      48.3       0      66       0      66      0.00
    10/17/2021 01:30      42    26.4      0.67        48.6      50.5      48.6       0      81       0      81      0.00
    10/17/2021 01:15      40    26.1      0.67        49.0      50.5      49.0       0     113       0     113      0.00
    10/17/2021 01:00      40    25.7      0.67        49.1      50.5      49.1       0      84       0      84      0.00
    10/17/2021 00:45      39    25.4      0.67        49.5      50.5      49.5       0     103       0     103      0.00
    10/17/2021 00:30      39    25.6      0.67        49.7      50.5      49.7       0      83       0      83      0.00
    10/17/2021 00:15      39    25.7      0.67        49.9      50.5      49.9       0      69       0      69      0.00
    10/17/2021 00:00      37    25.0      0.67        50.5      50.5      50.5       0      66       0      66      0.00
    10/16/2021 23:45      36    25.1      0.67        51.1      87.1      51.1       0      71      17      24      0.00
    10/16/2021 23:30      35    25.0      0.67        51.8      87.1      51.8       0      17      17      24      0.00
    10/16/2021 23:15      35    25.0      0.67        52.0      87.1      52.0       0      50      17      24      0.00
    10/16/2021 23:00      34    24.9      0.67        52.8      87.1      52.7       0      31      17      24      0.00
    10/16/2021 22:45      34    25.3      0.67        52.9      87.1      52.7       0      59      17      24      0.00
    10/16/2021 22:30      34    25.0      0.67        52.7      87.1      52.7       0      21      17      24      0.00
    10/16/2021 22:15      33    25.0      0.67        53.5      87.1      53.5       0      54      17      24      0.00
    10/16/2021 22:00      32    25.3      0.67        54.5      87.1      54.5       0      57      17      24      0.00
    10/16/2021 21:45      31    25.4      0.67        55.3      87.1      55.3       0      77      17      24      0.00
    10/16/2021 21:30      30    25.2      0.67        56.0      87.1      55.3       0      56      17      24      0.00
    10/16/2021 21:15      30    25.8      0.67        56.9      87.1      55.3       0      35      17      24      0.00
    10/16/2021 21:00      29    25.3      0.67        57.6      87.1      55.3       0      61      17      24      0.00
    10/16/2021 20:45      28    25.3      0.67        58.2      87.1      55.3       0     350      17      24      0.00
    10/16/2021 20:30      27    25.5      0.67        59.0      87.1      55.3       0      43      17      24      0.00
    10/16/2021 20:15      27    26.0      0.67        59.9      87.1      55.3       0     349      17      24      0.00
    10/16/2021 20:00      27    26.6      0.67        60.8      87.1      55.3       0      63      17      24      0.00
    10/16/2021 19:45      27    26.6      0.67        61.0      87.1      55.3       0      42      17      24      0.00
    10/16/2021 19:30      26    27.0      0.67        62.4      87.1      55.3       0      50      17      24      0.00
    10/16/2021 19:15      25    27.6      0.67        64.6      87.1      55.3       3      76      17      24      0.00
    10/16/2021 19:00      24    27.9      0.67        66.1      87.1      55.3       1      33      17      24      0.00
    10/16/2021 18:45      22    28.1      0.67        68.6      87.1      55.3       0      51      17      24      0.00
    10/16/2021 18:30      19    27.7      0.67        71.4      87.1      55.3       2     141      17      24      0.00
    10/16/2021 18:15      19    28.4      0.67        73.8      87.1      55.3       1     173      17      24      0.00
    10/16/2021 18:00      17    28.7      0.67        76.9      87.1      55.3       5     292      17      24      0.00
    10/16/2021 17:45      16    28.8      0.67        78.8      87.1      55.3       4     331      17      24      0.00
    10/16/2021 17:30      15    29.3      0.67        80.5      87.1      55.3       6     312      17      24      0.00
    10/16/2021 17:15      15    28.5      0.67        81.2      87.1      55.3       6     280      17      24      0.00
    10/16/2021 17:00      14    28.3      0.67        83.1      87.1      55.3       4     287      17      24      0.00
    10/16/2021 16:45      13    27.4      0.67        83.2      87.1      55.3       5     296      17      24      0.00
    10/16/2021 16:30      13    27.7      0.67        84.0      87.1      55.3       6     297      17      24      0.00
    10/16/2021 16:15      12    26.8      0.67        83.9      87.1      55.3       7     240      17      24      0.00
    10/16/2021 16:00      13    26.9      0.67        83.8      87.1      55.3       9     260      17      24      0.00
    10/16/2021 15:45      12    27.6      0.67        85.0      87.1      55.3       8     308      17      24      0.00
    10/16/2021 15:30      13    28.6      0.67        84.9      87.1      55.3       8     191      17      24      0.00
    10/16/2021 15:15      13    29.4      0.67        85.6      87.1      55.3       7     251      17      24      0.00
    10/16/2021 15:00      13    29.2      0.67        85.2      87.1      55.3      10     272      17      24      0.00
    10/16/2021 14:45      13    29.2      0.67        85.0      87.1      55.3       9     278      17      24      0.00
    10/16/2021 14:30      13    29.2      0.67        85.5      87.1      55.3      10     286      17      24      0.00
    10/16/2021 14:15      13    29.5      0.67        86.6      87.1      55.3       8     245      17      24      0.00
    10/16/2021 14:00      12    29.0      0.67        86.9      87.1      55.3       6     310      17      24      0.00
    10/16/2021 13:45      13    29.6      0.67        86.3      87.1      55.3       7     142      17      24      0.00
    10/16/2021 13:30      13    29.7      0.67        86.0      87.1      55.3       8     173      17      24      0.00
    10/16/2021 13:15      13    29.5      0.67        86.3      87.1      55.3       8     213      17      24      0.00
    10/16/2021 13:00      12    28.8      0.67        87.1      87.1      55.3       7     135      17      24      0.00
    10/16/2021 12:45      12    28.5      0.67        87.1      87.1      55.3       6     158      17      24      0.00
    10/16/2021 12:30      13    29.4      0.67        87.0      87.0      55.3       6      96      17      24      0.00
    10/16/2021 12:15      13    30.9      0.67        86.9      86.9      55.3       6       9      17      24      0.00
    10/16/2021 12:00      13    30.3      0.67        85.9      86.3      55.3       7     193      17      24      0.00
    10/16/2021 11:45      13    30.4      0.67        86.1      86.3      55.3       6     250      17      24      0.00
    10/16/2021 11:30      14    32.0      0.67        86.3      86.3      55.3       5     217      17      24      0.00
    10/16/2021 11:15      16    33.1      0.67        84.3      84.3      55.3       5     124      17      24      0.00
    10/16/2021 11:00      16    32.6      0.67        82.9      82.9      55.3       5     227      17      24      0.00
    10/16/2021 10:45      18    35.3      0.67        82.7      82.7      55.3       5     213      17      24      0.00
    10/16/2021 10:30      19    35.4      0.67        82.1      82.1      55.3       6     144      17      24      0.00
    10/16/2021 10:15      18    34.1      0.67        82.1      82.1      55.3       6      48      17      24      0.00
    10/16/2021 10:00      19    33.4      0.67        79.7      79.7      55.3       9      18      17      24      0.00
    10/16/2021 09:45      19    33.8      0.67        79.0      79.0      55.3      11      13      17      24      0.00
    10/16/2021 09:30      20    34.0      0.67        79.0      79.0      55.3       8      88      17      24      0.00
    10/16/2021 09:15      19    33.6      0.67        78.9      78.9      55.3       4      36      17      24      0.00
    10/16/2021 09:00      19    32.5      0.67        77.3      77.3      55.3       8      52      17      24      0.00
    10/16/2021 08:45      22    33.6      0.67        75.3      75.3      55.3       6      31      17      24      0.00
    10/16/2021 08:30      23    33.4      0.67        73.6      73.6      55.3       5       7      17      24      0.00
    10/16/2021 08:15      25    34.1      0.67        72.2      72.8      55.3       7     324      17      24      0.00
    10/16/2021 08:00      23    33.0      0.67        72.8      72.8      55.3      12      28      17      24      0.00
    10/16/2021 07:45      25    33.0      0.67        71.0      72.6      55.3       9      58      17      24      0.00
    10/16/2021 07:30      24    32.6      0.67        71.4      72.6      55.3       9      48      17      24      0.00
    10/16/2021 07:15      24    32.7      0.67        71.1      72.6      55.3       8      36      17      24      0.00
    10/16/2021 07:00      24    32.2      0.67        70.7      72.6      55.3       8      20      17      24      0.00
    10/16/2021 06:45      25    32.6      0.67        70.4      72.6      55.3       8      31      17      24      0.00
    10/16/2021 06:30      24    32.5      0.67        70.6      72.6      55.3       8     351      17      24      0.00
    10/16/2021 06:15      32    32.3      0.67        62.4      72.6      55.3       7     358      17      24      0.00
    10/16/2021 06:00      31    32.0      0.67        63.2      72.6      55.3       6      57      17      24      0.00
    10/16/2021 05:45      28    31.7      0.67        65.8      72.6      55.3       6      31      17      24      0.00
    10/16/2021 05:30      29    32.0      0.67        64.6      72.6      55.3       7      32      17      24      0.00
    10/16/2021 05:15      35    32.5      0.67        59.8      72.6      55.3       8      39      17      24      0.00
    10/16/2021 05:00      40    32.5      0.67        56.7      72.6      55.3       5      62      17      24      0.00
    10/16/2021 04:45      35    31.9      0.67        59.3      72.6      55.3       3     319      17      24      0.00
    10/16/2021 04:30      41    32.1      0.67        55.3      72.6      55.3       4      41      17      24      0.00
    10/16/2021 04:15      41    32.3      0.67        55.3      72.6      55.3       2      74      17      24      0.00
    10/16/2021 04:00      42    32.7      0.67        55.3      72.6      55.3       1     238      17      24      0.00
    10/16/2021 03:45      41    32.0      0.67        55.6      72.6      55.6       1     108      17      24      0.00
    10/16/2021 03:30      40    32.5      0.67        56.5      72.6      56.5       2      97      17      24      0.00
    10/16/2021 03:15      39    32.5      0.67        56.9      72.6      56.5       2     154      17      24      0.00
    10/16/2021 03:00      40    32.6      0.67        56.5      72.6      56.5       2      37      17      24      0.00
    10/16/2021 02:45      39    32.7      0.67        57.2      72.6      57.2       1      68      17      24      0.00
    10/16/2021 02:30      38    32.7      0.67        58.0      72.6      58.0       1     180      17      24      0.00
    10/16/2021 02:15      37    32.6      0.67        59.1      72.6      59.1       1     228      17      24      0.00
    10/16/2021 02:00      35    33.1      0.67        61.0      72.6      60.8       1       7      17      24      0.00
    10/16/2021 01:45      30    33.4      0.67        65.2      72.6      60.8       3      15      17      24      0.00
    10/16/2021 01:30      31    33.9      0.67        65.0      72.6      60.8       5      74      17      24      0.00
    10/16/2021 01:15      36    33.9      0.67        60.8      72.6      60.8       2     299      17      24      0.00
    10/16/2021 01:00      33    34.1      0.67        63.3      72.6      63.3       3      99      17      24      0.00
    10/16/2021 00:45      33    34.0      0.67        64.0      72.6      64.0       2     132      17      24      0.00
    10/16/2021 00:30      29    34.3      0.67        67.4      72.6      67.4       2     318      17      24      0.00
    10/16/2021 00:15      24    34.0      0.67        72.5      72.6      72.5       8      38      17      24      0.00
    10/16/2021 00:00      25    34.3      0.67        72.6      72.6      72.6      17      24      17      24      0.00
    10/15/2021 23:45      27    34.5      0.67        69.4      88.9      55.3      11      41      19      12      0.00
    10/15/2021 23:30      41    33.7      0.67        57.5      88.9      55.3       3      35      19      12      0.00
    10/15/2021 23:15      44    33.6      0.67        55.3      88.9      55.3       0      76      19      12      0.00
    10/15/2021 23:00      45    34.7      0.67        55.8      88.9      55.8       0     142      19      12      0.00
    10/15/2021 22:45      45    35.3      0.67        56.5      88.9      56.5       0       4      19      12      0.00
    10/15/2021 22:30      45    35.8      0.67        56.6      88.9      56.6       1     280      19      12      0.00
    10/15/2021 22:15      44    35.2      0.67        56.7      88.9      56.7       0     314      19      12      0.00
    10/15/2021 22:00      44    35.2      0.67        56.7      88.9      56.7       0     228      19      12      0.00
    10/15/2021 21:45      44    35.3      0.67        57.0      88.9      57.0       0      47      19      12      0.00
    10/15/2021 21:30      43    35.5      0.67        57.8      88.9      57.8       0      38      19      12      0.00
    10/15/2021 21:15      42    35.9      0.67        58.9      88.9      58.9       2     151      19      12      0.00
    10/15/2021 21:00      42    37.0      0.67        60.2      88.9      59.7       0     100      19      12      0.00
    10/15/2021 20:45      39    36.8      0.67        62.1      88.9      59.7       2     300      19      12      0.00
    10/15/2021 20:30      39    36.0      0.67        60.8      88.9      59.7       3      61      19      12      0.00
    10/15/2021 20:15      40    35.6      0.67        59.7      88.9      59.7       0      44      19      12      0.00
    10/15/2021 20:00      39    36.0      0.67        61.2      88.9      61.2       0      84      19      12      0.00
    10/15/2021 19:45      37    36.0      0.67        62.7      88.9      62.7       0      67      19      12      0.00
    10/15/2021 19:30      36    36.7      0.67        64.0      88.9      64.0       2      50      19      12      0.00
    10/15/2021 19:15      35    37.2      0.67        65.6      88.9      65.6       2      59      19      12      0.00
    10/15/2021 19:00      34    38.1      0.67        67.4      88.9      65.8       1       6      19      12      0.00
    10/15/2021 18:45      31    38.6      0.67        70.3      88.9      65.8       2      59      19      12      0.00
    10/15/2021 18:30      29    38.5      0.67        72.2      88.9      65.8       1     192      19      12      0.00
    10/15/2021 18:15      29    39.3      0.67        73.6      88.9      65.8       1     197      19      12      0.00
    10/15/2021 18:00      26    38.8      0.67        75.9      88.9      65.8       4      61      19      12      0.00
    10/15/2021 17:45      24    38.4      0.67        78.2      88.9      65.8       4     226      19      12      0.00
    10/15/2021 17:30      23    38.9      0.67        79.8      88.9      65.8       4     243      19      12      0.00
    10/15/2021 17:15      22    38.1      0.67        80.4      88.9      65.8       4     217      19      12      0.00
    10/15/2021 17:00      23    39.4      0.67        81.1      88.9      65.8       5     251      19      12      0.00
    10/15/2021 16:45      22    39.7      0.67        81.7      88.9      65.8       5     241      19      12      0.00
    10/15/2021 16:30      22    39.8      0.67        82.2      88.9      65.8       5     223      19      12      0.00
    10/15/2021 16:15      21    38.3      0.67        82.7      88.9      65.8       6     318      19      12      0.00
    10/15/2021 16:00      20    37.9      0.67        82.6      88.9      65.8       7     218      19      12      0.00
    10/15/2021 15:45      19    36.8      0.67        83.8      88.9      65.8       8     198      19      12      0.00
    10/15/2021 15:30      18    36.1      0.67        84.2      88.9      65.8       8     237      19      12      0.00
    10/15/2021 15:15      18    35.7      0.67        84.0      88.9      65.8      11     305      19      12      0.00
    10/15/2021 15:00      18    36.6      0.67        85.2      88.9      65.8       8     301      19      12      0.00
    10/15/2021 14:45      18    36.4      0.67        85.3      88.9      65.8      11     288      19      12      0.00
    10/15/2021 14:30      18    37.1      0.67        86.2      88.9      65.8      10     299      19      12      0.00
    10/15/2021 14:15      16    36.8      0.67        88.8      88.9      65.8       6     304      19      12      0.00
    10/15/2021 14:00      16    36.6      0.67        88.9      88.9      65.8       5     251      19      12      0.00
    10/15/2021 13:45      16    35.7      0.67        87.6      87.6      65.8       6     256      19      12      0.00
    10/15/2021 13:30      17    36.6      0.67        86.9      87.1      65.8       5     169      19      12      0.00
    10/15/2021 13:15      17    37.4      0.67        87.1      87.1      65.8       5     262      19      12      0.00
    10/15/2021 13:00      18    38.6      0.67        86.5      87.1      65.8       6     141      19      12      0.00
    10/15/2021 12:45      17    37.3      0.67        87.1      87.1      65.8       4     154      19      12      0.00
    10/15/2021 12:30      18    37.8      0.67        85.8      85.8      65.8       5      73      19      12      0.00
    10/15/2021 12:15      20    38.2      0.67        83.9      83.9      65.8       7      16      19      12      0.00
    10/15/2021 12:00      21    39.3      0.67        82.9      82.9      65.8       7     340      19      12      0.00
    10/15/2021 11:45      22    39.3      0.67        82.0      82.0      65.8       8      22      19      12      0.00
    10/15/2021 11:30      22    37.8      0.67        80.5      80.5      65.8      10      45      19      12      0.00
    10/15/2021 11:15      22    37.7      0.67        79.5      79.5      65.8      11      32      19      12      0.00
    10/15/2021 11:00      24    37.4      0.67        77.5      77.5      65.8      13      61      19      12      0.00
    10/15/2021 10:45      25    37.4      0.67        76.3      76.3      65.8      13      33      19      12      0.00
    10/15/2021 10:30      25    36.9      0.67        75.6      75.6      65.8      13      16      19      12      0.00
    10/15/2021 10:15      26    37.4      0.67        75.1      75.1      65.8      10      23      19      12      0.00
    10/15/2021 10:00      30    39.2      0.67        72.8      72.8      65.8       6      79      19      12      0.00
    10/15/2021 09:45      32    39.9      0.67        71.3      72.4      65.8       4     175      19      12      0.00
    10/15/2021 09:30      29    38.3      0.67        72.3      72.4      65.8       6     129      19      12      0.00
    10/15/2021 09:15      26    35.7      0.67        72.4      72.4      65.8       6     350      19      12      0.00
    10/15/2021 09:00      27    35.4      0.67        70.6      70.6      65.8       8      66      19      12      0.00
    10/15/2021 08:45      29    34.9      0.67        68.4      68.7      65.8      12      20      19      12      0.00
    10/15/2021 08:30      31    35.0      0.67        66.5      68.7      65.8      12      40      19      12      0.00
    10/15/2021 08:15      32    34.8      0.67        65.8      68.7      65.8      14      29      19      12      0.00
    10/15/2021 08:00      32    34.8      0.67        65.8      68.7      65.8      13      10      19      12      0.00
    10/15/2021 07:45      31    35.0      0.67        66.3      68.7      66.1      12      47      19      12      0.00
    10/15/2021 07:30      30    34.6      0.67        66.7      68.7      66.1       9      22      19      12      0.00
    10/15/2021 07:15      30    34.4      0.67        66.4      68.7      66.1       5      61      19      12      0.00
    10/15/2021 07:00      30    34.6      0.67        66.8      68.7      66.1       7      83      19      12      0.00
    10/15/2021 06:45      31    34.9      0.67        66.1      68.7      66.1       7      31      19      12      0.00
    10/15/2021 06:30      31    34.9      0.67        66.5      68.7      66.3       7      30      19      12      0.00
    10/15/2021 06:15      31    35.0      0.67        66.7      68.7      66.3       9      80      19      12      0.00
    10/15/2021 06:00      31    35.1      0.67        66.3      68.7      66.3       9      58      19      12      0.00
    10/15/2021 05:45      32    35.3      0.67        66.3      68.7      66.3       9      40      19      12      0.00
    10/15/2021 05:30      31    35.3      0.67        66.7      68.7      66.6      11      12      19      12      0.00
    10/15/2021 05:15      31    35.3      0.67        66.6      68.7      66.6      11      37      19      12      0.00
    10/15/2021 05:00      31    35.5      0.67        67.0      68.7      67.0      10      33      19      12      0.00
    10/15/2021 04:45      31    35.5      0.67        67.2      68.7      67.0      10      43      19      12      0.00
    10/15/2021 04:30      31    35.7      0.67        67.0      68.7      67.0      10      18      19      12      0.00
    10/15/2021 04:15      32    35.9      0.67        67.0      68.7      67.0      12       5      19      12      0.00
    10/15/2021 04:00      32    36.0      0.67        67.1      68.7      67.1      10      13      19      12      0.00
    10/15/2021 03:45      31    36.0      0.67        67.2      68.7      67.2      11      23      19      12      0.00
    10/15/2021 03:30      32    36.1      0.67        67.2      68.7      67.2      12      13      19      12      0.00
    10/15/2021 03:15      32    36.2      0.67        67.2      68.7      67.2      14      42      19      12      0.00
    10/15/2021 03:00      32    36.2      0.67        67.3      68.7      67.3      15      20      19      12      0.00
    10/15/2021 02:45      31    36.2      0.67        67.6      68.7      67.5      18      23      19      12      0.00
    10/15/2021 02:30      31    36.2      0.67        67.5      68.7      67.5      19       7      19      12      0.00
    10/15/2021 02:15      31    36.2      0.67        67.5      68.7      67.5      19      12      19      12      0.00
    10/15/2021 02:00      31    36.2      0.67        67.9      68.7      67.9      18      14      18      18      0.00
    10/15/2021 01:45      30    36.2      0.67        68.6      68.7      68.0      18      18      18      18      0.00
    10/15/2021 01:30      30    36.1      0.67        68.5      68.7      68.0      15      19      16      21      0.00
    10/15/2021 01:15      30    36.1      0.67        68.4      68.7      68.0      13      44      16      21      0.00
    10/15/2021 01:00      31    36.3      0.67        68.1      68.7      68.0      14      44      16      21      0.00
    10/15/2021 00:45      31    36.5      0.67        68.1      68.7      68.0      15      18      16      21      0.00
    10/15/2021 00:30      31    36.6      0.67        68.3      68.7      68.0      16      21      16      21      0.00
    10/15/2021 00:15      31    36.6      0.67        68.7      68.7      68.0      13      25      13      25      0.00
    10/15/2021 00:00      31    36.6      0.67        68.0      68.0      68.0       9      19       9      19      0.00
    10/14/2021 23:45      31    36.6      0.67        68.1      68.1      32.0       7      34       9      18      0.00
    10/14/2021 23:30      32    36.7      0.67        67.4      68.1      32.0       9      18       9      18      0.00
    10/14/2021 23:15      32    36.6      0.67        67.6      68.1      32.0       6     337       6      27      0.00
    10/14/2021 23:00      31    36.2      0.67        67.9      68.1      32.0       5       6       6      27      0.00
    10/14/2021 22:45      30    35.5      0.67        68.1      68.1      32.0       6      27       6      27      0.00
    10/14/2021 22:30      31    35.2      0.67        66.3      66.3      32.0       6      45       6      45      0.00